createdAt,value
2023-04-26T04:22:02.402Z,6.64
2023-04-26T04:24:31.862Z,5.95
2023-04-26T04:27:01.746Z,5.82
2023-04-26T04:29:29.748Z,6.11
2023-04-26T04:31:57.750Z,6.71
2023-04-26T04:34:26.636Z,6.07
2023-04-26T04:36:54.869Z,5.90
2023-04-26T04:39:24.492Z,6.21
2023-04-26T04:41:52.846Z,6.64
2023-04-26T04:44:20.938Z,5.50
2023-04-26T04:46:56.872Z,6.02
2023-04-26T04:49:25.934Z,7.50
2023-04-26T04:51:54.198Z,7.55
2023-04-26T04:54:22.246Z,5.16
2023-04-26T04:56:52.268Z,7.64
2023-04-26T04:59:20.410Z,6.52
2023-04-26T05:01:55.856Z,7.75
2023-04-26T05:04:24.012Z,7.16
2023-04-26T05:06:54.725Z,6.13
2023-04-26T05:09:22.971Z,7.55
2023-04-26T05:11:52.762Z,6.04
2023-04-26T05:14:21.201Z,5.25
2023-04-26T05:16:49.540Z,8.01
2023-04-26T05:19:17.858Z,8.06
2023-04-26T05:21:45.660Z,7.45
2023-04-26T05:27:13.760Z,7.04
2023-04-26T05:33:08.709Z,6.37
2023-04-26T05:35:54.142Z,7.86
2023-04-26T05:38:26.083Z,6.24
2023-04-26T05:44:32.431Z,6.73
2023-04-26T05:47:05.377Z,8.14
2023-04-26T05:49:35.942Z,8.41
2023-04-26T05:52:18.709Z,10.22
2023-04-26T05:55:00.746Z,9.88
2023-04-26T05:57:31.275Z,10.30
2023-04-26T06:00:36.469Z,10.76
2023-04-26T06:09:23.748Z,12.52
2023-04-26T06:11:51.658Z,11.05
2023-04-26T06:14:29.954Z,11.43
2023-04-26T06:16:59.958Z,13.66
2023-04-26T06:19:33.104Z,13.78
2023-04-26T06:22:00.974Z,13.96
2023-04-26T06:24:32.223Z,13.86
2023-04-26T06:27:00.048Z,14.90
2023-04-26T06:29:27.782Z,14.29
2023-04-26T06:31:55.763Z,15.76
2023-04-26T06:34:27.167Z,15.55
2023-04-26T06:37:47.065Z,17.47
2023-04-26T06:40:25.682Z,15.63
2023-04-26T06:42:56.886Z,15.48
2023-04-26T06:45:27.619Z,18.71
2023-04-26T06:47:57.446Z,16.96
2023-04-26T06:50:32.753Z,17.73
2023-04-26T06:53:01.663Z,19.03
2023-04-26T06:55:30.303Z,19.06
2023-04-26T06:57:59.090Z,17.31
2023-04-26T07:00:28.215Z,16.65
2023-04-26T07:02:56.519Z,16.89
2023-04-26T07:05:24.917Z,19.39
2023-04-26T07:07:54.572Z,18.45
2023-04-26T07:10:22.716Z,19.34
2023-04-26T07:12:50.673Z,18.82
2023-04-26T07:15:18.526Z,18.79
2023-04-26T07:17:47.135Z,19.80
2023-04-26T07:20:19.648Z,18.49
2023-04-26T07:22:47.624Z,18.30
2023-04-26T07:25:17.139Z,18.66
2023-04-26T07:27:45.363Z,17.61
2023-04-26T07:30:13.939Z,19.56
2023-04-26T07:32:42.223Z,20.34
2023-04-26T07:35:16.392Z,19.15
2023-04-26T07:37:45.185Z,19.64
2023-04-26T07:40:15.023Z,18.90
2023-04-26T07:42:46.732Z,19.37
2023-04-26T07:45:14.737Z,18.72
2023-04-26T07:47:42.759Z,18.58
2023-04-26T07:50:12.406Z,19.17
2023-04-26T07:52:40.387Z,20.02
2023-04-26T07:55:08.921Z,20.35
2023-04-26T07:57:37.758Z,21.21
2023-04-26T08:00:10.925Z,20.28
2023-04-26T08:02:45.589Z,21.78
2023-04-26T08:05:14.048Z,19.87
2023-04-26T08:07:42.233Z,20.15
2023-04-26T08:10:11.055Z,21.91
2023-04-26T08:12:39.201Z,22.06
2023-04-26T08:15:09.459Z,21.29
2023-04-26T08:17:37.683Z,21.20
2023-04-26T08:20:07.278Z,19.96
2023-04-26T08:22:35.128Z,20.36
2023-04-26T08:25:04.617Z,21.88
2023-04-26T08:27:34.485Z,20.82
2023-04-26T08:30:02.404Z,21.04
2023-04-26T08:32:31.691Z,20.13
2023-04-26T08:34:59.731Z,20.62
2023-04-26T08:37:29.318Z,21.50
2023-04-26T08:39:57.462Z,21.26
2023-04-26T08:42:27.370Z,21.02
2023-04-26T08:44:55.136Z,20.74
2023-04-26T08:47:31.677Z,21.88
2023-04-26T08:50:02.748Z,20.23
2023-04-26T08:52:31.656Z,20.05
2023-04-26T08:55:00.322Z,21.07
2023-04-26T08:57:28.133Z,21.24
2023-04-26T08:59:56.450Z,21.04
2023-04-26T09:02:24.549Z,19.95
2023-04-26T09:04:52.820Z,19.82
2023-04-26T09:07:22.915Z,20.54
2023-04-26T09:09:51.395Z,20.17
2023-04-26T09:12:20.231Z,21.41
2023-04-26T09:14:48.146Z,20.97
2023-04-26T09:17:28.978Z,21.78
2023-04-26T09:19:56.828Z,21.13
2023-04-26T09:22:33.209Z,22.92
2023-04-26T09:25:01.241Z,22.28
2023-04-26T09:27:36.469Z,22.92
2023-04-26T09:30:10.376Z,21.37
2023-04-26T09:32:51.613Z,21.34
2023-04-26T09:35:37.399Z,21.86
2023-04-26T09:38:12.360Z,20.87
2023-04-26T09:40:42.158Z,20.38
2023-04-26T09:43:11.519Z,20.82
2023-04-26T09:45:46.890Z,19.69
2023-04-26T09:48:16.719Z,18.33
2023-04-26T09:50:45.222Z,20.00
2023-04-26T09:53:26.408Z,18.22
2023-04-26T09:55:54.729Z,18.97
2023-04-26T09:58:23.151Z,18.97
2023-04-26T10:00:51.958Z,20.99
2023-04-26T10:03:20.144Z,21.48
2023-04-26T10:05:48.177Z,20.99
2023-04-26T10:08:17.679Z,23.51
2023-04-26T10:10:45.894Z,24.17
2023-04-26T10:13:14.019Z,23.66
2023-04-26T10:15:41.902Z,23.18
2023-04-26T10:18:09.775Z,23.14
2023-04-26T10:20:39.973Z,23.27
2023-04-26T10:23:07.900Z,24.64
2023-04-26T10:25:37.834Z,23.89
2023-04-26T10:28:05.894Z,24.82
2023-04-26T10:30:33.652Z,26.64
2023-04-26T10:33:16.481Z,26.28
2023-04-26T10:36:09.880Z,26.10
2023-04-26T10:38:39.245Z,24.42
2023-04-26T10:41:30.786Z,25.51
2023-04-26T10:43:59.841Z,24.72
2023-04-26T10:46:38.279Z,23.92
2023-04-26T10:49:17.072Z,23.75
2023-04-26T10:52:16.411Z,23.48
2023-04-26T10:54:56.799Z,23.28
2023-04-26T10:57:47.885Z,22.03
2023-04-26T11:00:31.994Z,23.03
2023-04-26T11:03:12.786Z,21.36
2023-04-26T11:05:53.232Z,22.43
2023-04-26T11:08:21.644Z,22.37
2023-04-26T11:10:53.798Z,22.51
2023-04-26T11:13:22.924Z,23.08
2023-04-26T11:15:54.008Z,21.69
2023-04-26T11:18:21.876Z,22.52
2023-04-26T11:20:49.656Z,22.78
2023-04-26T11:23:19.000Z,23.30
2023-04-26T11:25:46.827Z,22.19
2023-04-26T11:28:14.555Z,22.39
2023-04-26T11:30:43.926Z,22.89
2023-04-26T11:33:17.668Z,21.41
2023-04-26T11:35:46.414Z,22.32
2023-04-26T11:38:14.111Z,21.71
2023-04-26T11:40:41.840Z,22.24
2023-04-26T11:43:09.854Z,22.77
2023-04-26T11:45:38.134Z,22.92
2023-04-26T11:48:08.575Z,22.06
2023-04-26T11:50:36.911Z,22.84
2023-04-26T11:53:06.570Z,21.72
2023-04-26T11:55:35.921Z,22.44
2023-04-26T11:58:10.717Z,22.46
2023-04-26T12:00:38.827Z,20.21
2023-04-26T12:03:11.293Z,20.22
2023-04-26T12:05:39.363Z,20.74
2023-04-26T12:08:07.377Z,22.26
2023-04-26T12:10:36.498Z,21.72
2023-04-26T12:13:04.267Z,21.93
2023-04-26T12:15:32.636Z,20.18
2023-04-26T12:18:01.787Z,22.43
2023-04-26T12:20:32.553Z,22.12
2023-04-26T12:23:04.688Z,21.87
2023-04-26T12:25:33.119Z,20.47
2023-04-26T12:28:00.891Z,21.47
2023-04-26T12:30:29.941Z,22.67
2023-04-26T12:33:05.779Z,20.93
2023-04-26T12:35:44.639Z,21.48
2023-04-26T12:38:13.391Z,21.25
2023-04-26T12:40:41.739Z,20.56
2023-04-26T12:43:09.878Z,21.53
2023-04-26T12:45:37.724Z,21.03
2023-04-26T12:48:07.817Z,19.45
2023-04-26T12:50:37.464Z,21.94
2023-04-26T12:53:12.737Z,22.02
2023-04-26T12:55:40.568Z,21.07
2023-04-26T12:58:08.505Z,21.07
2023-04-26T13:00:36.312Z,19.85
2023-04-26T13:03:04.591Z,20.03
2023-04-26T13:05:32.784Z,22.52
2023-04-26T13:08:02.286Z,20.83
2023-04-26T13:10:32.874Z,19.71
2023-04-26T13:13:02.276Z,21.61
2023-04-26T13:15:30.843Z,21.77
2023-04-26T13:17:59.187Z,22.47
2023-04-26T13:20:29.013Z,21.72
2023-04-26T13:23:00.345Z,21.64
2023-04-26T13:25:32.953Z,21.01
2023-04-26T13:28:09.819Z,22.14
2023-04-26T13:30:39.165Z,21.34
2023-04-26T13:33:08.000Z,21.22
2023-04-26T13:35:38.664Z,20.55
2023-04-26T13:38:07.014Z,18.79
2023-04-26T13:40:35.347Z,18.78
2023-04-26T13:43:06.937Z,20.37
2023-04-26T13:45:37.002Z,19.08
2023-04-26T13:48:06.625Z,17.85
2023-04-26T13:50:35.230Z,20.31
2023-04-26T13:53:04.432Z,19.23
2023-04-26T13:55:32.731Z,19.68
2023-04-26T13:58:01.188Z,19.53
2023-04-26T14:00:34.121Z,19.19
2023-04-26T14:03:02.879Z,16.91
2023-04-26T14:05:31.286Z,19.29
2023-04-26T14:07:59.558Z,17.49
2023-04-26T14:10:28.058Z,19.54
2023-04-26T14:12:56.882Z,19.23
2023-04-26T14:15:26.258Z,18.59
2023-04-26T14:17:56.431Z,17.39
2023-04-26T14:20:25.698Z,17.37
2023-04-26T14:22:54.275Z,19.47
2023-04-26T14:25:22.305Z,16.98
2023-04-26T14:27:52.321Z,19.93
2023-04-26T14:30:22.210Z,17.90
2023-04-26T14:32:50.276Z,19.75
2023-04-26T14:35:22.046Z,18.95
2023-04-26T14:37:50.299Z,19.55
2023-04-26T14:40:18.444Z,19.51
2023-04-26T14:42:46.873Z,16.79
2023-04-26T14:45:15.108Z,18.85
2023-04-26T14:47:43.249Z,18.46
2023-04-26T14:50:13.801Z,18.33
2023-04-26T14:52:43.335Z,18.15
2023-04-26T14:55:12.250Z,18.80
2023-04-26T14:57:41.976Z,18.81
2023-04-26T15:00:15.134Z,18.20
2023-04-26T15:02:43.322Z,17.52
2023-04-26T15:05:11.985Z,19.02
2023-04-26T15:07:40.098Z,18.36
2023-04-26T15:10:14.736Z,18.37
2023-04-26T15:12:43.994Z,15.83
2023-04-26T15:15:13.076Z,18.12
2023-04-26T15:17:41.793Z,17.80
2023-04-26T15:20:10.891Z,19.19
2023-04-26T15:22:39.545Z,18.48
2023-04-26T15:25:11.451Z,17.47
2023-04-26T15:27:39.953Z,18.70
2023-04-26T15:30:10.368Z,17.93
2023-04-26T15:32:38.747Z,16.93
2023-04-26T15:35:08.124Z,17.48
2023-04-26T15:37:44.416Z,19.50
2023-04-26T15:40:14.941Z,18.81
2023-04-26T15:42:45.726Z,18.68
2023-04-26T15:45:14.645Z,18.63
2023-04-26T15:47:43.091Z,18.43
2023-04-26T15:50:13.345Z,18.45
2023-04-26T15:52:42.313Z,18.72
2023-04-26T15:55:11.772Z,18.05
2023-04-26T15:57:42.793Z,16.82
2023-04-26T16:00:14.626Z,17.82
2023-04-26T16:02:44.894Z,16.44
2023-04-26T16:05:14.023Z,17.85
2023-04-26T16:07:43.464Z,15.38
2023-04-26T16:10:11.938Z,16.90
2023-04-26T16:12:43.624Z,16.68
2023-04-26T16:15:12.133Z,16.11
2023-04-26T16:17:40.274Z,17.28
2023-04-26T16:20:10.111Z,17.12
2023-04-26T16:22:37.923Z,17.01
2023-04-26T16:25:06.889Z,15.93
2023-04-26T16:30:19.053Z,15.24
2023-04-26T16:32:47.126Z,16.58
2023-04-26T16:35:33.170Z,17.35
2023-04-26T16:38:01.561Z,16.65
2023-04-26T16:40:29.262Z,16.91
2023-04-26T16:42:57.524Z,15.77
2023-04-26T16:45:26.784Z,14.44
2023-04-26T16:47:54.754Z,15.32
2023-04-26T16:50:22.672Z,15.21
2023-04-26T16:52:50.853Z,15.62
2023-04-26T16:55:18.714Z,15.95
2023-04-26T16:57:46.476Z,15.40
2023-04-26T17:00:15.614Z,15.72
2023-04-26T17:02:45.403Z,16.08
2023-04-26T17:05:14.017Z,15.68
2023-04-26T17:07:44.408Z,16.73
2023-04-26T17:10:12.304Z,16.10
2023-04-26T17:12:40.174Z,16.79
2023-04-26T17:15:18.438Z,16.42
2023-04-26T17:17:48.019Z,14.43
2023-04-26T17:20:16.538Z,16.06
2023-04-26T17:22:44.540Z,14.22
2023-04-26T17:25:12.662Z,15.31
2023-04-26T17:27:40.522Z,16.73
2023-04-26T17:30:10.904Z,15.34
2023-04-26T17:32:38.849Z,16.32
2023-04-26T17:35:09.105Z,14.11
2023-04-26T17:37:37.056Z,16.59
2023-04-26T17:40:07.734Z,15.94
2023-04-26T17:42:35.727Z,15.13
2023-04-26T17:45:05.196Z,15.76
2023-04-26T17:47:37.327Z,15.93
2023-04-26T17:50:11.141Z,15.32
2023-04-26T17:52:44.900Z,15.37
2023-04-26T17:55:13.537Z,14.89
2023-04-26T17:58:04.246Z,15.28
2023-04-26T18:00:34.608Z,14.29
2023-04-26T18:03:15.362Z,14.00
2023-04-26T18:05:56.907Z,15.57
2023-04-26T18:08:30.024Z,14.71
2023-04-26T18:11:01.129Z,12.59
2023-04-26T18:13:41.880Z,14.71
2023-04-26T18:16:15.870Z,13.50
2023-04-26T18:18:43.862Z,14.63
2023-04-26T18:21:14.187Z,14.60
2023-04-26T18:23:45.584Z,14.84
2023-04-26T18:26:15.840Z,14.00
2023-04-26T18:28:49.434Z,12.86
2023-04-26T18:31:20.816Z,13.90
2023-04-26T18:33:52.234Z,13.20
2023-04-26T22:57:41.786Z,12.05
2023-04-26T23:00:12.455Z,12.40
2023-04-26T23:02:41.264Z,11.11
2023-04-26T23:05:10.989Z,11.96
2023-04-26T23:07:38.902Z,12.59
2023-04-26T23:10:08.388Z,12.20
2023-04-26T23:12:37.064Z,12.25
2023-04-26T23:15:07.618Z,9.26
2023-04-26T23:17:35.476Z,11.76
2023-04-26T23:20:11.624Z,9.83
2023-04-26T23:22:39.864Z,11.53
2023-04-26T23:25:09.142Z,10.00
2023-04-26T23:27:37.000Z,9.14
2023-04-26T23:30:07.970Z,11.23
2023-04-26T23:32:35.931Z,11.44
2023-04-26T23:35:04.164Z,9.39
2023-04-26T23:37:32.090Z,8.81
2023-04-26T23:40:00.025Z,11.89
2023-04-26T23:42:28.150Z,10.97
2023-04-26T23:44:56.152Z,9.71
2023-04-26T23:47:25.894Z,9.96
2023-04-26T23:49:54.044Z,9.70
2023-04-26T23:52:21.988Z,10.79
2023-04-26T23:54:50.204Z,9.59
2023-04-26T23:57:18.158Z,9.52
2023-04-26T23:59:46.171Z,11.42
